createdAt,value
2022-08-30T00:02:42.117Z,17.22
2022-08-30T00:07:45.106Z,17.23
2022-08-30T00:12:49.085Z,17.27
2022-08-30T00:17:52.384Z,17.25
2022-08-30T00:22:56.083Z,17.23
2022-08-30T00:27:59.253Z,17.23
2022-08-30T00:33:02.272Z,17.22
2022-08-30T00:38:05.185Z,17.20
2022-08-30T00:43:17.003Z,17.21
2022-08-30T00:48:23.285Z,17.22
2022-08-30T00:53:35.427Z,17.23
2022-08-30T00:58:44.210Z,17.25
2022-08-30T01:03:48.001Z,17.29
2022-08-30T01:08:50.939Z,17.28
2022-08-30T01:13:56.296Z,17.27
2022-08-30T01:19:00.650Z,17.23
2022-08-30T01:24:07.058Z,17.25
2022-08-30T01:29:17.112Z,17.23
2022-08-30T01:34:20.065Z,17.20
2022-08-30T01:39:24.691Z,17.21
2022-08-30T01:44:27.647Z,17.21
2022-08-30T01:49:30.570Z,17.23
2022-08-30T01:54:38.391Z,17.23
2022-08-30T01:59:47.576Z,17.25
2022-08-30T02:04:51.922Z,17.16
2022-08-30T02:09:54.921Z,17.14
2022-08-30T02:14:58.192Z,17.12
2022-08-30T02:20:01.198Z,17.12
2022-08-30T02:25:07.474Z,17.13
2022-08-30T02:30:24.064Z,17.16
2022-08-30T02:35:27.156Z,17.11
2022-08-30T02:40:30.255Z,17.10
2022-08-30T02:45:33.719Z,17.11
2022-08-30T02:50:43.062Z,17.09
2022-08-30T02:55:45.996Z,17.07
2022-08-30T03:00:49.019Z,17.04
2022-08-30T03:05:55.501Z,16.94
2022-08-30T03:11:00.137Z,16.77
2022-08-30T03:16:03.431Z,16.68
2022-08-30T03:21:11.899Z,16.65
2022-08-30T03:26:15.122Z,16.64
2022-08-30T03:31:18.170Z,16.63
2022-08-30T03:36:21.521Z,16.60
2022-08-30T03:41:25.346Z,16.56
2022-08-30T03:46:29.219Z,16.54
2022-08-30T03:51:32.327Z,16.54
2022-08-30T03:56:35.276Z,16.57
2022-08-30T04:01:38.355Z,16.56
2022-08-30T04:06:41.474Z,16.54
2022-08-30T04:11:44.494Z,16.53
2022-08-30T04:16:47.506Z,16.49
2022-08-30T04:21:50.564Z,16.42
2022-08-30T04:26:53.555Z,16.43
2022-08-30T04:31:56.756Z,16.46
2022-08-30T04:36:59.801Z,16.47
2022-08-30T04:42:03.557Z,16.49
2022-08-30T04:47:08.573Z,16.52
2022-08-30T04:52:11.552Z,16.56
2022-08-30T04:57:14.696Z,16.60
2022-08-30T05:02:18.856Z,16.59
2022-08-30T05:07:21.860Z,16.60
2022-08-30T05:12:25.111Z,16.63
2022-08-30T05:17:28.594Z,16.75
2022-08-30T05:22:31.889Z,16.73
2022-08-30T05:27:37.550Z,16.77
2022-08-30T05:32:41.638Z,16.62
2022-08-30T05:37:45.920Z,16.46
2022-08-30T05:42:48.923Z,16.43
2022-08-30T05:47:51.895Z,16.44
2022-08-30T05:52:55.012Z,16.43
2022-08-30T05:57:57.999Z,16.44
2022-08-30T06:03:00.958Z,16.46
2022-08-30T06:08:04.382Z,16.49
2022-08-30T06:13:07.413Z,16.38
2022-08-30T06:18:10.491Z,16.28
2022-08-30T06:23:14.918Z,16.21
2022-08-30T06:28:18.495Z,16.33
2022-08-30T06:33:21.524Z,16.42
2022-08-30T06:38:24.531Z,16.47
2022-08-30T06:43:27.495Z,16.56
2022-08-30T06:48:30.501Z,16.59
2022-08-30T06:53:34.730Z,16.59
2022-08-30T06:58:41.028Z,16.63
2022-08-30T07:03:44.556Z,16.68
2022-08-30T07:08:56.065Z,16.76
2022-08-30T07:14:00.349Z,16.82
2022-08-30T07:19:05.565Z,16.88
2022-08-30T07:24:10.250Z,16.91
2022-08-30T07:29:13.378Z,16.89
2022-08-30T07:34:16.710Z,16.86
2022-08-30T07:39:20.360Z,17.04
2022-08-30T07:44:25.189Z,17.04
2022-08-30T07:49:28.532Z,17.04
2022-08-30T07:54:31.498Z,17.11
2022-08-30T07:59:36.166Z,17.06
2022-08-30T08:04:39.532Z,17.27
2022-08-30T08:09:42.620Z,17.59
2022-08-30T08:14:46.246Z,17.95
2022-08-30T08:19:49.226Z,18.02
2022-08-30T08:24:52.309Z,17.20
2022-08-30T08:29:55.588Z,16.62
2022-08-30T08:34:58.735Z,16.22
2022-08-30T08:40:06.081Z,16.11
2022-08-30T08:45:20.110Z,16.37
2022-08-30T08:50:25.510Z,16.41
2022-08-30T08:55:30.011Z,16.49
2022-08-30T09:00:33.267Z,16.58
2022-08-30T09:05:40.662Z,16.82
2022-08-30T09:10:57.459Z,17.17
2022-08-30T09:16:00.695Z,17.23
2022-08-30T09:21:07.886Z,17.03
2022-08-30T09:26:10.935Z,17.35
2022-08-30T09:31:45.593Z,17.57
2022-08-30T09:36:52.824Z,17.37
2022-08-30T09:42:23.915Z,17.45
2022-08-30T09:47:32.366Z,17.75
2022-08-30T09:53:13.477Z,17.94
2022-08-30T09:59:17.063Z,18.04
2022-08-30T10:04:53.346Z,17.68
2022-08-30T10:10:36.112Z,17.73
2022-08-30T10:15:46.685Z,17.67
2022-08-30T10:21:17.031Z,17.81
2022-08-30T10:26:35.009Z,17.93
2022-08-30T10:32:29.619Z,17.52
2022-08-30T10:37:41.114Z,17.19
2022-08-30T10:42:44.347Z,17.12
2022-08-30T10:48:17.623Z,17.18
2022-08-30T10:53:37.331Z,17.56
2022-08-30T10:58:42.895Z,17.81
2022-08-30T11:04:02.658Z,18.02
2022-08-30T11:09:40.103Z,18.25
2022-08-30T11:14:45.777Z,18.19
2022-08-30T11:19:49.530Z,18.28
2022-08-30T11:25:38.812Z,18.20
2022-08-30T11:30:41.910Z,17.96
2022-08-30T11:35:52.480Z,17.93
2022-08-30T11:40:55.293Z,17.83
2022-08-30T11:46:28.286Z,17.65
2022-08-30T11:51:50.862Z,17.42
2022-08-30T11:57:45.889Z,17.24
2022-08-30T12:03:16.048Z,17.28
2022-08-30T12:08:37.217Z,17.09
2022-08-30T12:13:43.324Z,17.20
2022-08-30T12:18:49.677Z,17.47
2022-08-30T12:24:09.839Z,17.52
2022-08-30T12:29:18.836Z,17.36
2022-08-30T12:34:30.543Z,17.57
2022-08-30T12:39:37.391Z,17.64
2022-08-30T12:44:41.676Z,17.59
2022-08-30T12:49:46.771Z,17.46
2022-08-30T12:54:53.962Z,17.38
2022-08-30T13:00:02.196Z,17.37
2022-08-30T13:05:45.017Z,17.49
2022-08-30T13:11:12.072Z,17.62
2022-08-30T13:16:26.515Z,17.66
2022-08-30T13:21:35.750Z,17.57
2022-08-30T13:26:41.320Z,17.48
2022-08-30T13:31:45.308Z,17.56
2022-08-30T13:36:58.784Z,17.74
2022-08-30T13:47:33.226Z,18.27
2022-08-30T13:52:37.505Z,18.52
2022-08-30T13:57:57.519Z,18.54
2022-08-30T14:03:01.648Z,18.23
2022-08-30T14:08:44.167Z,17.95
2022-08-30T14:13:31.634Z,17.88
2022-08-30T14:18:36.048Z,17.82
2022-08-30T14:23:40.131Z,17.91
2022-08-30T14:28:45.052Z,17.99
2022-08-30T14:33:48.780Z,18.17
2022-08-30T14:38:52.021Z,18.32
2022-08-30T14:43:55.346Z,18.27
2022-08-30T14:48:58.251Z,18.29
2022-08-30T14:54:01.316Z,18.31
2022-08-30T14:59:04.465Z,18.33
2022-08-30T15:04:10.269Z,18.46
2022-08-30T15:09:19.287Z,18.39
2022-08-30T15:14:28.234Z,18.32
2022-08-30T15:19:32.925Z,18.23
2022-08-30T15:24:36.088Z,18.19
2022-08-30T15:29:39.080Z,18.19
2022-08-30T15:34:42.093Z,18.23
2022-08-30T15:39:44.985Z,18.17
2022-08-30T15:44:55.274Z,17.99
2022-08-30T15:50:03.290Z,17.93
2022-08-30T15:55:07.312Z,17.87
2022-08-30T16:00:11.544Z,17.81
2022-08-30T16:05:15.513Z,17.78
2022-08-30T16:10:18.963Z,17.80
2022-08-30T16:15:21.924Z,17.79
2022-08-30T16:20:26.035Z,17.76
2022-08-30T16:25:40.937Z,17.76
2022-08-30T16:30:44.282Z,17.80
2022-08-30T16:35:54.116Z,17.82
2022-08-30T16:40:57.753Z,17.80
2022-08-30T16:46:04.553Z,17.81
2022-08-30T16:51:22.259Z,17.76
2022-08-30T16:56:27.584Z,17.74
2022-08-30T17:01:34.715Z,17.71
2022-08-30T17:06:39.177Z,17.72
2022-08-30T17:11:42.960Z,17.69
2022-08-30T17:16:46.008Z,17.64
2022-08-30T17:21:49.005Z,17.51
2022-08-30T17:26:52.538Z,17.40
2022-08-30T17:31:56.974Z,17.26
2022-08-30T17:37:00.542Z,17.16
2022-08-30T17:42:04.707Z,17.01
2022-08-30T17:47:08.753Z,16.87
2022-08-30T17:52:12.834Z,16.75
2022-08-30T17:57:16.993Z,16.58
2022-08-30T18:02:22.841Z,16.42
2022-08-30T18:07:33.801Z,16.28
2022-08-30T18:12:36.781Z,16.16
2022-08-30T18:17:41.565Z,16.03
2022-08-30T18:22:45.829Z,15.91
2022-08-30T18:27:58.133Z,15.80
2022-08-30T18:33:02.053Z,15.73
2022-08-30T18:38:06.185Z,15.70
2022-08-30T18:43:10.069Z,15.70
2022-08-30T18:48:14.565Z,15.69
2022-08-30T18:53:28.584Z,15.70
2022-08-30T18:58:32.546Z,15.73
2022-08-30T19:03:36.613Z,15.75
2022-08-30T19:08:41.547Z,15.82
2022-08-30T19:13:48.896Z,15.86
2022-08-30T19:18:54.512Z,15.89
2022-08-30T19:23:57.736Z,15.94
2022-08-30T19:29:02.330Z,16.04
2022-08-30T19:34:05.491Z,16.15
2022-08-30T19:39:10.078Z,16.18
2022-08-30T19:44:13.608Z,16.15
2022-08-30T19:49:16.804Z,16.15
2022-08-30T19:54:20.391Z,16.11
2022-08-30T19:59:23.514Z,16.05
2022-08-30T20:04:26.920Z,16.05
2022-08-30T20:09:30.783Z,16.02
2022-08-30T20:14:33.763Z,16.01
2022-08-30T20:19:37.230Z,16.04
2022-08-30T20:24:43.706Z,16.02
2022-08-30T20:29:47.445Z,16.05
2022-08-30T20:34:53.932Z,16.10
2022-08-30T20:39:57.637Z,16.08
2022-08-30T20:45:00.668Z,16.02
2022-08-30T20:50:09.232Z,15.91
2022-08-30T20:55:17.593Z,15.86
2022-08-30T21:00:20.749Z,15.80
2022-08-30T21:05:25.484Z,15.73
2022-08-30T21:10:28.641Z,15.65
2022-08-30T21:15:37.821Z,15.60
2022-08-30T21:20:42.342Z,15.54
2022-08-30T21:25:45.394Z,15.46
2022-08-30T21:30:48.500Z,15.38
2022-08-30T21:36:26.710Z,15.28
2022-08-30T21:41:31.546Z,15.17
2022-08-30T21:46:36.709Z,15.08
2022-08-30T21:51:43.479Z,15.03
2022-08-30T21:56:49.797Z,15.01
2022-08-30T22:01:52.863Z,15.00
2022-08-30T22:06:56.498Z,14.97
2022-08-30T22:11:59.538Z,14.97
2022-08-30T22:17:03.105Z,14.98
2022-08-30T22:22:06.716Z,14.96
2022-08-30T22:27:09.673Z,14.88
2022-08-30T22:32:13.233Z,14.78
2022-08-30T22:37:16.366Z,14.74
2022-08-30T22:42:19.440Z,14.72
2022-08-30T22:47:22.415Z,14.70
2022-08-30T22:52:25.951Z,14.65
2022-08-30T22:57:28.908Z,14.64
2022-08-30T23:02:34.910Z,14.66
2022-08-30T23:07:38.071Z,14.67
2022-08-30T23:12:41.295Z,14.71
2022-08-30T23:17:44.709Z,14.78
2022-08-30T23:22:58.003Z,14.83
2022-08-30T23:28:20.743Z,14.81
2022-08-30T23:33:42.480Z,14.71
2022-08-30T23:39:03.839Z,14.62
2022-08-30T23:44:26.225Z,14.52
2022-08-30T23:49:47.758Z,14.36
2022-08-30T23:55:09.294Z,14.31
